createdAt,value
2023-01-18T00:02:03.691Z,97730.09
2023-01-18T00:04:30.305Z,97730.13
2023-01-18T00:06:57.316Z,97730.00
2023-01-18T00:09:23.821Z,97730.00
2023-01-18T00:11:50.330Z,97722.09
2023-01-18T00:14:17.069Z,97725.53
2023-01-18T00:16:43.582Z,97719.75
2023-01-18T00:19:13.098Z,97726.13
2023-01-18T00:21:40.570Z,97727.09
2023-01-18T00:24:10.991Z,97726.28
2023-01-18T00:26:37.987Z,97715.28
2023-01-18T00:29:04.924Z,97718.03
2023-01-18T00:31:31.739Z,97711.53
2023-01-18T00:33:58.576Z,97711.03
2023-01-18T00:36:25.078Z,97706.91
2023-01-18T00:38:52.528Z,97712.28
2023-01-18T00:41:20.855Z,97708.00
2023-01-18T00:43:47.311Z,97705.50
2023-01-18T00:46:20.044Z,97700.31
2023-01-18T00:48:47.112Z,97692.63
2023-01-18T00:51:16.271Z,97695.91
2023-01-18T00:53:46.137Z,97688.56
2023-01-18T00:56:15.566Z,97690.22
2023-01-18T00:58:42.475Z,97680.34
2023-01-18T01:01:10.044Z,97679.22
2023-01-18T01:03:56.148Z,97667.72
2023-01-18T01:06:44.539Z,97670.13
2023-01-18T01:09:22.018Z,97670.13
2023-01-18T01:12:07.879Z,97664.88
2023-01-18T01:14:55.909Z,97654.28
2023-01-18T01:17:41.392Z,97663.94
2023-01-18T01:20:27.441Z,97657.84
2023-01-18T01:23:12.306Z,97654.78
2023-01-18T01:25:58.142Z,97648.59
2023-01-18T01:28:24.933Z,97653.19
2023-01-18T01:30:51.583Z,97648.94
2023-01-18T01:33:18.677Z,97647.81
2023-01-18T01:35:45.515Z,97644.75
2023-01-18T01:38:12.037Z,97644.44
2023-01-18T01:40:38.537Z,97639.72
2023-01-18T01:43:09.795Z,97643.50
2023-01-18T01:45:36.461Z,97641.25
2023-01-18T01:48:03.325Z,97650.69
2023-01-18T01:50:35.890Z,97658.63
2023-01-18T01:53:02.906Z,97657.28
2023-01-18T01:55:35.150Z,97657.72
2023-01-18T01:58:03.790Z,97653.94
2023-01-18T02:00:30.885Z,97649.00
2023-01-18T02:03:02.182Z,97643.47
2023-01-18T02:05:30.017Z,97644.25
2023-01-18T02:07:59.883Z,97648.25
2023-01-18T02:10:26.779Z,97649.31
2023-01-18T02:12:54.879Z,97645.66
2023-01-18T02:15:22.979Z,97652.56
2023-01-18T02:18:06.188Z,97650.88
2023-01-18T02:21:03.232Z,97655.44
2023-01-18T02:23:35.233Z,97662.34
2023-01-18T02:26:25.079Z,97647.53
2023-01-18T02:29:01.464Z,97652.31
2023-01-18T02:31:34.512Z,97644.94
2023-01-18T02:34:16.535Z,97649.19
2023-01-18T02:37:01.267Z,97649.03
2023-01-18T02:39:38.423Z,97648.88
2023-01-18T02:42:40.302Z,97645.44
2023-01-18T02:45:36.044Z,97646.09
2023-01-18T02:48:03.304Z,97643.19
2023-01-18T02:50:29.854Z,97647.97
2023-01-18T02:52:56.723Z,97651.88
2023-01-18T02:55:47.917Z,97645.06
2023-01-18T02:58:34.253Z,97641.78
2023-01-18T03:01:15.431Z,97632.94
2023-01-18T03:03:44.376Z,97641.13
2023-01-18T03:06:10.879Z,97638.16
2023-01-18T03:08:46.553Z,97626.88
2023-01-18T03:11:19.183Z,97623.31
2023-01-18T03:13:57.880Z,97623.13
2023-01-18T03:16:26.205Z,97626.06
2023-01-18T03:19:25.677Z,97616.72
2023-01-18T03:21:53.229Z,97615.91
2023-01-18T03:24:22.887Z,97612.31
2023-01-18T03:26:53.190Z,97606.06
2023-01-18T03:29:39.639Z,97598.53
2023-01-18T03:32:30.364Z,97597.63
2023-01-18T03:35:10.877Z,97582.53
2023-01-18T03:37:41.016Z,97572.47
2023-01-18T03:40:13.570Z,97565.13
2023-01-18T03:43:05.579Z,97562.50
2023-01-18T03:45:38.909Z,97556.91
2023-01-18T03:48:08.149Z,97551.31
2023-01-18T03:50:49.942Z,97551.47
2023-01-18T03:53:42.157Z,97544.16
2023-01-18T03:56:37.805Z,97533.53
2023-01-18T03:59:05.508Z,97531.88
2023-01-18T04:01:32.158Z,97517.00
2023-01-18T04:03:58.706Z,97519.25
2023-01-18T04:06:25.817Z,97504.53
2023-01-18T04:08:53.157Z,97501.94
2023-01-18T04:11:20.234Z,97501.97
2023-01-18T04:13:46.746Z,97491.00
2023-01-18T04:16:13.453Z,97492.63
2023-01-18T04:18:40.043Z,97493.75
2023-01-18T04:21:06.497Z,97496.91
2023-01-18T04:23:32.968Z,97483.28
2023-01-18T04:25:59.510Z,97484.63
2023-01-18T04:28:26.101Z,97489.88
2023-01-18T04:30:54.080Z,97498.53
2023-01-18T04:33:21.669Z,97494.97
2023-01-18T04:35:48.584Z,97498.69
2023-01-18T04:38:15.833Z,97494.44
2023-01-18T04:40:42.751Z,97494.28
2023-01-18T04:43:09.371Z,97494.97
2023-01-18T04:45:35.876Z,97496.25
2023-01-18T04:48:02.311Z,97490.06
2023-01-18T04:50:28.875Z,97492.50
2023-01-18T04:52:55.726Z,97492.22
2023-01-18T04:55:22.827Z,97488.28
2023-01-18T04:57:56.778Z,97492.50
2023-01-18T05:00:24.161Z,97495.34
2023-01-18T05:02:50.995Z,97494.16
2023-01-18T05:05:17.814Z,97503.19
2023-01-18T05:07:44.312Z,97496.22
2023-01-18T05:10:11.170Z,97498.31
2023-01-18T05:12:37.930Z,97506.16
2023-01-18T05:15:05.859Z,97501.75
2023-01-18T05:17:34.612Z,97502.91
2023-01-18T05:20:02.070Z,97494.94
2023-01-18T05:22:29.154Z,97489.84
2023-01-18T05:24:55.777Z,97491.47
2023-01-18T05:27:22.394Z,97481.50
2023-01-18T05:29:48.890Z,97491.97
2023-01-18T05:32:15.435Z,97489.03
2023-01-18T05:34:42.332Z,97495.25
2023-01-18T05:37:08.772Z,97487.06
2023-01-18T05:39:35.216Z,97484.59
2023-01-18T05:42:01.729Z,97469.03
2023-01-18T05:44:28.255Z,97460.69
2023-01-18T05:46:54.733Z,97445.31
2023-01-18T05:49:21.207Z,97452.31
2023-01-18T05:51:47.734Z,97444.47
2023-01-18T05:54:14.282Z,97428.94
2023-01-18T05:56:42.248Z,97429.09
2023-01-18T05:59:09.063Z,97416.00
2023-01-18T06:01:35.602Z,97399.63
2023-01-18T06:04:02.149Z,97401.75
2023-01-18T06:06:28.794Z,97400.44
2023-01-18T06:08:55.354Z,97385.69
2023-01-18T06:11:22.015Z,97385.53
2023-01-18T06:13:48.624Z,97398.31
2023-01-18T06:16:15.262Z,97388.50
2023-01-18T06:18:42.024Z,97393.06
2023-01-18T06:21:10.769Z,97388.00
2023-01-18T06:23:37.844Z,97377.69
2023-01-18T06:26:04.570Z,97368.38
2023-01-18T06:28:31.141Z,97368.38
2023-01-18T06:30:58.091Z,97349.22
2023-01-18T06:33:25.207Z,97328.28
2023-01-18T06:35:52.242Z,97324.88
2023-01-18T06:38:19.984Z,97324.88
2023-01-18T06:40:46.500Z,97317.16
2023-01-18T06:43:14.296Z,97316.19
2023-01-18T06:45:41.372Z,97335.34
2023-01-18T06:48:08.256Z,97364.94
2023-01-18T06:50:34.700Z,97389.78
2023-01-18T06:53:01.499Z,97388.50
2023-01-18T06:55:28.155Z,97368.56
2023-01-18T06:57:56.217Z,97363.97
2023-01-18T07:00:23.588Z,97360.22
2023-01-18T07:02:52.811Z,97352.19
2023-01-18T07:05:22.931Z,97353.03
2023-01-18T07:07:49.468Z,97330.63
2023-01-18T07:10:16.910Z,97329.78
2023-01-18T07:12:47.419Z,97327.69
2023-01-18T07:15:21.607Z,97334.88
2023-01-18T07:17:50.322Z,97341.72
2023-01-18T07:20:17.106Z,97348.94
2023-01-18T07:22:43.610Z,97353.84
2023-01-18T07:25:13.262Z,97369.22
2023-01-18T07:27:43.545Z,97370.88
2023-01-18T07:30:13.520Z,97379.22
2023-01-18T07:32:40.614Z,97374.00
2023-01-18T07:35:07.402Z,97369.56
2023-01-18T07:37:34.151Z,97359.75
2023-01-18T07:40:00.709Z,97355.84
2023-01-18T07:42:27.224Z,97355.34
2023-01-18T07:44:53.960Z,97359.47
2023-01-18T07:47:21.081Z,97353.72
2023-01-18T07:49:47.547Z,97355.19
2023-01-18T07:52:14.033Z,97351.56
2023-01-18T07:54:40.543Z,97354.84
2023-01-18T07:57:07.032Z,97366.47
2023-01-18T07:59:33.813Z,97358.75
2023-01-18T08:02:00.444Z,97349.09
2023-01-18T08:04:27.018Z,97352.03
2023-01-18T08:06:53.693Z,97348.63
2023-01-18T08:09:22.867Z,97343.38
2023-01-18T08:11:49.385Z,97337.16
2023-01-18T08:14:16.408Z,97333.88
2023-01-18T08:16:43.291Z,97338.28
2023-01-18T08:19:09.940Z,97340.09
2023-01-18T08:21:36.567Z,97347.47
2023-01-18T08:24:03.625Z,97336.19
2023-01-18T08:26:30.285Z,97326.69
2023-01-18T08:28:57.557Z,97318.84
2023-01-18T08:31:24.176Z,97313.59
2023-01-18T08:33:51.017Z,97306.75
2023-01-18T08:36:22.789Z,97302.78
2023-01-18T08:38:51.071Z,97294.63
2023-01-18T08:41:19.122Z,97293.97
2023-01-18T08:43:50.563Z,97284.81
2023-01-18T08:46:17.493Z,97305.75
2023-01-18T08:48:44.191Z,97317.22
2023-01-18T08:51:10.895Z,97316.88
2023-01-18T08:53:37.518Z,97309.84
2023-01-18T08:56:06.326Z,97315.25
2023-01-18T08:58:33.182Z,97314.94
2023-01-18T09:00:59.803Z,97323.28
2023-01-18T09:03:26.458Z,97328.69
2023-01-18T09:05:52.964Z,97333.91
2023-01-18T09:08:22.786Z,97321.78
2023-01-18T09:10:49.586Z,97312.16
2023-01-18T09:13:16.056Z,97321.47
2023-01-18T09:15:42.873Z,97318.88
2023-01-18T09:18:09.693Z,97302.50
2023-01-18T09:20:36.408Z,97306.75
2023-01-18T09:23:10.173Z,97302.16
2023-01-18T09:25:37.196Z,97295.31
2023-01-18T09:28:04.825Z,97292.03
2023-01-18T09:30:31.448Z,97282.22
2023-01-18T09:32:58.823Z,97273.41
2023-01-18T09:35:25.587Z,97273.41
2023-01-18T09:37:52.332Z,97257.50
2023-01-18T09:40:20.757Z,97244.91
2023-01-18T09:42:49.503Z,97244.75
2023-01-18T09:45:31.952Z,97241.31
2023-01-18T09:48:05.242Z,97254.91
2023-01-18T09:50:42.810Z,97242.78
2023-01-18T09:53:57.653Z,97240.50
2023-01-18T09:56:27.752Z,97241.97
2023-01-18T09:59:15.584Z,97251.78
2023-01-18T10:01:42.281Z,97257.34
2023-01-18T10:04:24.549Z,97249.66
2023-01-18T10:07:02.947Z,97249.66
2023-01-18T10:09:38.883Z,97254.06
2023-01-18T10:12:31.780Z,97231.97
2023-01-18T10:15:04.677Z,97236.06
2023-01-18T10:17:35.832Z,97227.91
2023-01-18T10:20:14.665Z,97246.88
2023-01-18T10:23:09.408Z,97245.25
2023-01-18T10:25:52.484Z,97247.38
2023-01-18T10:28:27.764Z,97249.00
2023-01-18T10:31:03.745Z,97245.72
2023-01-18T10:33:36.481Z,97239.19
2023-01-18T10:36:11.827Z,97231.19
2023-01-18T10:38:40.858Z,97223.63
2023-01-18T10:41:18.999Z,97212.19
2023-01-18T10:43:45.841Z,97201.06
2023-01-18T10:46:17.261Z,97205.81
2023-01-18T10:48:49.490Z,97214.47
2023-01-18T10:51:37.596Z,97228.88
2023-01-18T10:54:23.382Z,97226.56
2023-01-18T10:57:01.912Z,97215.78
2023-01-18T10:59:35.832Z,97205.81
2023-01-18T11:02:03.071Z,97197.94
2023-01-18T11:04:31.647Z,97200.88
2023-01-18T11:07:02.294Z,97187.97
2023-01-18T11:09:40.923Z,97199.09
2023-01-18T11:12:43.507Z,97195.81
2023-01-18T11:15:15.730Z,97193.19
2023-01-18T11:18:00.395Z,97189.25
2023-01-18T11:20:46.289Z,97189.59
2023-01-18T11:23:25.578Z,97186.66
2023-01-18T11:26:05.884Z,97192.88
2023-01-18T11:28:59.096Z,97191.06
2023-01-18T11:31:29.285Z,97195.16
2023-01-18T11:33:58.281Z,97190.41
2023-01-18T11:36:35.588Z,97189.75
2023-01-18T11:39:29.984Z,97185.81
2023-01-18T11:42:20.245Z,97191.41
2023-01-18T11:45:09.978Z,97186.66
2023-01-18T11:47:45.500Z,97183.72
2023-01-18T11:50:28.382Z,97196.13
2023-01-18T11:53:15.110Z,97194.50
2023-01-18T11:55:47.620Z,97188.63
2023-01-18T11:58:28.623Z,97192.22
2023-01-18T12:01:34.117Z,97180.75
2023-01-18T12:04:14.388Z,97181.28
2023-01-18T12:07:05.340Z,97179.16
2023-01-18T12:09:34.777Z,97187.31
2023-01-18T12:12:18.594Z,97177.97
2023-01-18T12:15:05.388Z,97179.81
2023-01-18T12:17:45.813Z,97182.88
2023-01-18T12:20:38.529Z,97182.09
2023-01-18T12:23:22.578Z,97195.97
2023-01-18T12:26:11.666Z,97198.44
2023-01-18T12:28:57.547Z,97187.78
2023-01-18T12:31:56.917Z,97190.59
2023-01-18T12:34:30.495Z,97200.25
2023-01-18T12:37:22.750Z,97208.59
2023-01-18T12:40:01.365Z,97208.25
2023-01-18T12:42:37.520Z,97205.97
2023-01-18T12:45:17.701Z,97194.34
2023-01-18T12:48:05.257Z,97209.91
2023-01-18T12:50:34.396Z,97207.75
2023-01-18T12:53:05.417Z,97214.31
2023-01-18T12:55:33.496Z,97221.34
2023-01-18T12:58:00.962Z,97229.06
2023-01-18T13:00:36.852Z,97240.34
2023-01-18T13:03:15.055Z,97236.56
2023-01-18T13:05:58.093Z,97241.81
2023-01-18T13:08:30.617Z,97234.44
2023-01-18T13:11:06.978Z,97232.78
2023-01-18T13:13:40.982Z,97233.13
2023-01-18T13:16:29.332Z,97236.09
2023-01-18T13:19:00.523Z,97243.44
2023-01-18T13:22:01.074Z,97247.22
2023-01-18T13:24:39.839Z,97250.81
2023-01-18T13:27:11.946Z,97256.69
2023-01-18T13:29:39.364Z,97262.13
2023-01-18T13:32:24.551Z,97264.72
2023-01-18T13:35:17.962Z,97265.22
2023-01-18T13:37:56.345Z,97270.44
2023-01-18T13:40:24.928Z,97275.69
2023-01-18T13:42:51.666Z,97276.19
2023-01-18T13:45:21.886Z,97274.69
2023-01-18T13:48:00.942Z,97279.59
2023-01-18T13:50:38.312Z,97277.16
2023-01-18T13:53:13.974Z,97287.28
2023-01-18T13:55:42.003Z,97297.63
2023-01-18T13:58:38.655Z,97294.00
2023-01-18T14:01:07.151Z,97295.47
2023-01-18T14:03:36.603Z,97300.03
2023-01-18T14:06:10.177Z,97302.31
2023-01-18T14:08:39.880Z,97311.59
2023-01-18T14:11:09.718Z,97311.31
2023-01-18T14:13:45.391Z,97313.91
2023-01-18T14:16:26.123Z,97321.94
2023-01-18T14:19:03.120Z,97329.59
2023-01-18T14:22:07.706Z,97331.88
2023-01-18T14:24:50.054Z,97325.31
2023-01-18T14:27:20.584Z,97323.03
2023-01-18T14:29:48.465Z,97330.88
2023-01-18T14:32:23.235Z,97330.19
2023-01-18T14:35:25.990Z,97331.72
2023-01-18T14:37:54.088Z,97334.63
2023-01-18T14:40:28.258Z,97342.56
2023-01-18T14:43:10.279Z,97337.78
2023-01-18T14:45:39.082Z,97344.97
2023-01-18T14:48:10.887Z,97346.34
2023-01-18T14:50:42.129Z,97350.97
2023-01-18T14:53:20.151Z,97363.41
2023-01-18T14:56:06.591Z,97361.78
2023-01-18T14:58:36.632Z,97378.38
2023-01-18T15:01:04.033Z,97383.47
2023-01-18T15:03:32.048Z,97389.19
2023-01-18T15:06:08.453Z,97391.47
2023-01-18T15:08:35.712Z,97390.78
2023-01-18T15:11:05.041Z,97392.38
2023-01-18T15:13:33.007Z,97393.19
2023-01-18T15:16:02.829Z,97393.19
2023-01-18T15:18:29.875Z,97399.41
2023-01-18T15:20:59.298Z,97407.25
2023-01-18T15:23:27.223Z,97426.25
2023-01-18T15:25:54.479Z,97431.22
2023-01-18T15:28:23.990Z,97445.75
2023-01-18T15:30:53.189Z,97452.25
2023-01-18T15:33:22.377Z,97453.25
2023-01-18T15:35:53.128Z,97454.22
2023-01-18T15:38:22.766Z,97458.25
2023-01-18T15:40:57.191Z,97462.19
2023-01-18T15:43:28.303Z,97460.72
2023-01-18T15:45:56.047Z,97470.25
2023-01-18T15:48:23.496Z,97477.75
2023-01-18T15:50:52.641Z,97484.91
2023-01-18T15:53:29.189Z,97484.63
2023-01-18T15:56:03.856Z,97492.38
2023-01-18T15:58:34.834Z,97496.00
2023-01-18T16:01:10.769Z,97507.94
2023-01-18T16:03:41.479Z,97515.09
2023-01-18T16:06:11.447Z,97521.72
2023-01-18T16:09:10.625Z,97527.50
2023-01-18T16:11:41.569Z,97538.78
2023-01-18T16:14:30.906Z,97551.03
2023-01-18T16:17:15.475Z,97559.25
2023-01-18T16:19:55.571Z,97563.28
2023-01-18T16:22:28.835Z,97571.13
2023-01-18T16:25:08.950Z,97572.25
2023-01-18T16:27:55.926Z,97580.22
2023-01-18T16:30:26.009Z,97584.78
2023-01-18T16:32:52.835Z,97599.19
2023-01-18T16:35:21.402Z,97606.06
2023-01-18T16:37:48.291Z,97612.94
2023-01-18T16:40:17.087Z,97625.66
2023-01-18T16:43:20.357Z,97636.63
2023-01-18T16:45:49.709Z,97634.00
2023-01-18T16:48:20.245Z,97637.28
2023-01-18T16:50:47.466Z,97647.59
2023-01-18T16:53:14.194Z,97653.78
2023-01-18T16:55:43.947Z,97654.91
2023-01-18T16:58:14.097Z,97661.06
2023-01-18T17:01:00.146Z,97666.56
2023-01-18T17:03:27.781Z,97681.59
2023-01-18T17:05:55.282Z,97684.22
2023-01-18T17:08:21.784Z,97684.34
2023-01-18T17:10:50.162Z,97692.06
2023-01-18T17:13:17.177Z,97689.13
2023-01-18T17:15:45.457Z,97697.78
2023-01-18T17:18:16.951Z,97700.41
2023-01-18T17:20:44.087Z,97711.84
2023-01-18T17:23:10.855Z,97713.91
2023-01-18T17:25:37.903Z,97721.69
2023-01-18T17:28:04.811Z,97733.34
2023-01-18T17:30:32.708Z,97742.00
2023-01-18T17:32:59.772Z,97742.00
2023-01-18T17:35:28.506Z,97754.78
2023-01-18T17:38:01.029Z,97766.50
2023-01-18T17:40:41.920Z,97766.78
2023-01-18T17:43:15.210Z,97771.34
2023-01-18T17:45:48.416Z,97770.38
2023-01-18T17:48:20.161Z,97781.59
2023-01-18T17:50:46.944Z,97788.78
2023-01-18T17:53:13.503Z,97791.53
2023-01-18T17:55:40.533Z,97790.03
2023-01-18T17:58:07.254Z,97792.94
2023-01-18T18:00:33.803Z,97799.38
2023-01-18T18:03:02.163Z,97799.66
2023-01-18T18:05:28.957Z,97805.72
2023-01-18T18:07:55.451Z,97800.34
2023-01-18T18:10:21.981Z,97812.69
2023-01-18T18:12:48.692Z,97818.06
2023-01-18T18:15:15.360Z,97829.50
2023-01-18T18:17:41.970Z,97827.28
2023-01-18T18:20:10.858Z,97839.38
2023-01-18T18:22:37.897Z,97843.47
2023-01-18T18:25:06.589Z,97841.72
2023-01-18T18:27:44.859Z,97850.81
2023-01-18T18:30:13.007Z,97853.41
2023-01-18T18:32:39.913Z,97867.31
2023-01-18T18:35:23.273Z,97868.84
2023-01-18T18:37:51.685Z,97880.69
2023-01-18T18:40:19.290Z,97883.97
2023-01-18T18:43:00.763Z,97887.84
2023-01-18T18:45:30.202Z,97901.84
2023-01-18T18:47:56.698Z,97912.06
2023-01-18T18:50:23.208Z,97922.25
2023-01-18T18:52:49.946Z,97928.56
2023-01-18T18:55:16.574Z,97932.00
2023-01-18T18:57:43.108Z,97938.19
2023-01-18T19:00:10.421Z,97939.44
2023-01-18T19:02:37.151Z,97945.63
2023-01-18T19:05:04.215Z,97950.88
2023-01-18T19:07:31.049Z,97966.56
2023-01-18T19:09:57.563Z,97982.25
2023-01-18T19:12:24.155Z,97985.81
2023-01-18T19:14:50.791Z,97990.50
2023-01-18T19:17:28.987Z,98002.88
2023-01-18T19:19:56.567Z,98004.09
2023-01-18T19:22:23.205Z,98013.03
2023-01-18T19:24:49.846Z,98034.25
2023-01-18T19:27:16.721Z,98033.72
2023-01-18T19:29:43.290Z,98038.53
2023-01-18T19:32:10.090Z,98041.41
2023-01-18T19:34:38.687Z,98056.66
2023-01-18T19:37:05.473Z,98051.31
2023-01-18T19:39:34.799Z,98058.59
2023-01-18T19:42:01.945Z,98061.22
2023-01-18T19:44:28.512Z,98065.63
2023-01-18T19:46:57.987Z,98064.38
2023-01-18T19:49:26.224Z,98079.38
2023-01-18T19:51:54.692Z,98078.16
2023-01-18T19:54:22.094Z,98072.94
2023-01-18T19:56:49.143Z,98074.28
2023-01-18T19:59:15.824Z,98081.31
2023-01-18T20:01:42.640Z,98090.38
2023-01-18T20:04:09.856Z,98080.22
2023-01-18T20:06:39.787Z,98084.06
2023-01-18T20:09:17.861Z,98093.97
2023-01-18T20:11:45.202Z,98091.06
2023-01-18T20:14:11.941Z,98106.94
2023-01-18T20:16:38.580Z,98105.66
2023-01-18T20:19:05.509Z,98122.63
2023-01-18T20:21:32.103Z,98129.91
2023-01-18T20:23:59.132Z,98139.25
2023-01-18T20:26:35.824Z,98146.97
2023-01-18T20:29:07.145Z,98159.38
2023-01-18T20:31:36.038Z,98175.22
2023-01-18T20:34:08.955Z,98163.50
2023-01-18T20:36:36.923Z,98163.25
2023-01-18T20:39:04.603Z,98159.53
2023-01-18T20:41:31.368Z,98173.00
2023-01-18T20:43:58.254Z,98186.91
2023-01-18T20:46:24.821Z,98192.41
2023-01-18T20:48:51.388Z,98191.84
2023-01-18T20:51:18.322Z,98200.69
2023-01-18T20:53:45.906Z,98216.38
2023-01-18T20:56:27.915Z,98226.84
2023-01-18T20:58:55.656Z,98236.63
2023-01-18T21:01:22.426Z,98241.19
2023-01-18T21:03:54.349Z,98243.53
2023-01-18T21:06:21.526Z,98256.75
2023-01-18T21:08:48.139Z,98266.53
2023-01-18T21:11:16.873Z,98268.19
2023-01-18T21:13:43.765Z,98273.81
2023-01-18T21:16:10.424Z,98276.03
2023-01-18T21:18:37.662Z,98279.75
2023-01-18T21:21:04.766Z,98280.31
2023-01-18T21:23:38.011Z,98281.00
2023-01-18T21:26:05.585Z,98281.41
2023-01-18T21:28:32.069Z,98284.44
2023-01-18T21:30:58.564Z,98279.06
2023-01-18T21:33:25.635Z,98279.19
2023-01-18T21:35:55.372Z,98280.00
2023-01-18T21:38:25.667Z,98284.13
2023-01-18T21:40:52.249Z,98297.09
2023-01-18T21:43:38.837Z,98306.88
2023-01-18T21:46:07.665Z,98316.44
2023-01-18T21:48:34.135Z,98323.00
2023-01-18T21:51:21.082Z,98328.28
2023-01-18T21:54:06.456Z,98341.09
2023-01-18T21:56:33.085Z,98351.28
2023-01-18T21:59:01.023Z,98352.91
2023-01-18T22:01:37.767Z,98362.88
2023-01-18T22:04:28.657Z,98376.47
2023-01-18T22:06:59.085Z,98390.94
2023-01-18T22:09:30.005Z,98398.66
2023-01-18T22:11:57.301Z,98393.84
2023-01-18T22:14:24.341Z,98396.88
2023-01-18T22:16:50.842Z,98394.13
2023-01-18T22:19:19.761Z,98403.31
2023-01-18T22:21:46.639Z,98407.47
2023-01-18T22:24:13.810Z,98413.25
2023-01-18T22:26:41.239Z,98400.84
2023-01-18T22:29:08.302Z,98395.63
2023-01-18T22:31:35.002Z,98393.16
2023-01-18T22:34:04.390Z,98404.84
2023-01-18T22:36:31.754Z,98422.34
2023-01-18T22:38:58.212Z,98419.59
2023-01-18T22:41:27.057Z,98432.53
2023-01-18T22:43:54.562Z,98433.25
2023-01-18T22:46:22.165Z,98438.63
2023-01-18T22:48:48.749Z,98437.50
2023-01-18T22:51:17.105Z,98434.22
2023-01-18T22:53:44.503Z,98436.94
2023-01-18T22:56:24.591Z,98437.66
2023-01-18T22:58:51.980Z,98446.63
2023-01-18T23:01:25.800Z,98458.88
2023-01-18T23:03:55.014Z,98462.84
2023-01-18T23:06:21.627Z,98454.50
2023-01-18T23:08:48.636Z,98457.91
2023-01-18T23:11:17.931Z,98457.00
2023-01-18T23:14:19.675Z,98464.03
2023-01-18T23:17:04.632Z,98463.16
2023-01-18T23:19:31.250Z,98470.88
2023-01-18T23:21:58.033Z,98480.91
2023-01-18T23:24:25.303Z,98485.91
2023-01-18T23:26:52.507Z,98489.09
2023-01-18T23:29:19.940Z,98502.59
2023-01-18T23:31:46.771Z,98503.53
2023-01-18T23:34:21.996Z,98499.00
2023-01-18T23:36:48.571Z,98505.59
2023-01-18T23:39:33.389Z,98506.41
2023-01-18T23:42:18.809Z,98523.59
2023-01-18T23:45:04.610Z,98536.84
2023-01-18T23:47:49.367Z,98546.63
2023-01-18T23:50:34.847Z,98539.22
2023-01-18T23:53:20.424Z,98550.84
2023-01-18T23:55:47.012Z,98560.03
2023-01-18T23:58:13.520Z,98568.03
